Flight Track Log - Related Links

Times and Time Zones

All times are in EDT time to prevent confusion due to time zone crossing. See the TAM3756 flight status page for this flight to view local times or setup timezone preferences in your user account.

Time Position Orientation Groundspeed Altitude Reporting Facility
EDT Latitude Longitude Course Direction KTS MPH feet Rate Location/Type
Thu 08:10:00 AM -22.1486 -43.3538 347° North  Level Estimated
Thu 08:11:00 AM -22.0899 -43.3684 347° North  Level Estimated
Thu 08:12:00 AM -22.0313 -43.3830 347° North  Level Estimated
Thu 08:13:00 AM -21.9727 -43.3975 347° North  Level Estimated
Thu 08:14:00 AM -21.9141 -43.4121 347° North  Level Estimated
Thu 08:15:00 AM -21.8554 -43.4266 347° North  Level Estimated
Thu 08:16:00 AM -21.7968 -43.4411 347° North  Level Estimated
Thu 08:17:00 AM -21.7382 -43.4557 347° North  Level Estimated
Thu 08:18:00 AM -21.6796 -43.4701 347° North  Level Estimated
Thu 08:19:00 AM -21.6209 -43.4846 347° North  Level Estimated
Thu 08:20:00 AM -21.5623 -43.4991 347° North  Level Estimated
Thu 08:21:00 AM -21.5037 -43.5136 347° North  Level Estimated
Thu 08:22:00 AM -21.4450 -43.5280 347° North  Level Estimated
Thu 08:23:00 AM -21.3864 -43.5425 347° North  Level Estimated
Thu 08:24:00 AM -21.3278 -43.5569 347° North  Level Estimated
Thu 08:25:00 AM -21.2691 -43.5713 347° North  Level Estimated
Thu 08:26:00 AM -21.2105 -43.5857 347° North  Level Estimated
Thu 08:27:00 AM -21.1519 -43.6001 347° North  Level Estimated
Thu 08:28:00 AM -21.0932 -43.6145 347° North  Level Estimated
Thu 08:29:00 AM -21.0346 -43.6289 347° North  Level Estimated
Thu 08:30:00 AM -20.9760 -43.6432 347° North  Level Estimated
Thu 08:31:00 AM -20.9173 -43.6576 347° North  Level Estimated
Thu 08:32:00 AM -20.8587 -43.6719 347° North  Level Estimated
Thu 08:33:00 AM -20.8000 -43.6862 347° North  Level Estimated
Thu 08:34:00 AM -20.7414 -43.7006 347° North  Level Estimated
Thu 08:35:00 AM -20.6827 -43.7149 347° North  Level Estimated
Thu 08:36:00 AM -20.6241 -43.7292 347° North  Level Estimated
Thu 08:37:00 AM -20.5654 -43.7434 347° North  Level Estimated
Thu 08:38:00 AM -20.5068 -43.7577 347° North  Level Estimated
Thu 08:39:00 AM -20.4481 -43.7720 347° North  Level Estimated
Thu 08:40:00 AM -20.3895 -43.7862 347° North  Level Estimated
Thu 08:41:00 AM -20.3308 -43.8005 347° North  Level Estimated
Thu 08:42:00 AM -20.2722 -43.8147 347° North  Level Estimated
Thu 08:43:00 AM -20.2135 -43.8289 347° North  Level Estimated
Thu 08:44:00 AM -20.1549 -43.8431 347° North  Level Estimated
Thu 08:45:00 AM -20.0962 -43.8573 347° North  Level Estimated
Thu 08:46:00 AM -20.0375 -43.8715 347° North  Level Estimated
Thu 08:47:00 AM -19.9789 -43.8857 347° North  Level Estimated
Thu 08:48:00 AM -19.9202 -43.8998 347° North  Level Estimated
Thu 08:49:00 AM -19.8615 -43.9140 347° North  Level Estimated
Thu 08:50:00 AM -19.8029 -43.9281 347° North  Level Estimated
Thu 08:51:00 AM -19.7442 -43.9423 347° North  Level Estimated
Thu 08:52:00 AM -19.6856 -43.9564 347° North  Level Estimated
Thu 08:53:00 AM -19.6338 -43.9689 347° North  Level Estimated
Thu 08:54:00 AM -19.6338 -43.9689 90° East  Level Estimated
Thu 08:55:00 AM -19.6338 -43.9689 90° East  Level Estimated
Thu 08:56:00 AM -19.6338 -43.9689 90° East  Level Estimated
Thu 08:57:00 AM -19.6338 -43.9689 90° East  Level Estimated
Thu 08:58:00 AM -19.6338 -43.9689 90° East  Level Estimated
Thu 08:59:00 AM -19.6338 -43.9689 90° East  Level Estimated
Thu 09:00:00 AM -19.6338 -43.9689 90° East  Level Estimated
Thu 09:01:00 AM -19.6338 -43.9689 90° East  Level Estimated
Thu 09:02:00 AM -19.6338 -43.9689 90° East  Level Estimated
Thu 09:03:00 AM -19.6338 -43.9689 90° East  Level Estimated
Thu 09:04:00 AM -19.6338 -43.9689 90° East  Level Estimated
Thu 09:05:00 AM -19.6338 -43.9689 90° East  Level Estimated
Thu 09:06:00 AM -19.6338 -43.9689 90° East  Level Estimated
Thu 09:07:00 AM -19.6338 -43.9689 90° East  Level Estimated
Thu 09:08:00 AM -19.6338 -43.9689 90° East  Level Estimated
Thu 09:09:00 AM -19.6338 -43.9689 90° East  Level Estimated

Login

Don't have an account? Register now (free) for customized features, flight alerts, and more!